createdAt,value
2023-04-16T00:00:10.266Z,78.20
2023-04-16T00:00:42.756Z,90.40
2023-04-16T00:01:15.238Z,86.10
2023-04-16T00:01:47.785Z,75.50
2023-04-16T00:02:20.316Z,74.00
2023-04-16T00:02:53.064Z,63.40
2023-04-16T00:03:25.635Z,68.40
2023-04-16T00:03:57.988Z,62.90
2023-04-16T00:04:30.399Z,61.10
2023-04-16T00:05:02.800Z,68.90
2023-04-16T00:05:35.182Z,69.10
2023-04-16T00:06:07.669Z,68.30
2023-04-16T00:06:40.173Z,61.00
2023-04-16T00:07:12.694Z,63.00
2023-04-16T00:07:45.173Z,69.60
2023-04-16T00:08:17.699Z,64.90
2023-04-16T00:08:50.120Z,64.30
2023-04-16T00:09:22.593Z,77.90
2023-04-16T00:09:55.058Z,75.40
2023-04-16T00:10:27.530Z,77.10
2023-04-16T00:11:00.017Z,70.80
2023-04-16T00:11:32.521Z,63.40
2023-04-16T00:12:05.077Z,77.10
2023-04-16T00:12:37.455Z,67.10
2023-04-16T00:13:09.933Z,63.10
2023-04-16T00:13:42.441Z,66.90
2023-04-16T00:14:22.488Z,65.20
2023-04-16T00:14:54.994Z,67.30
2023-04-16T00:15:27.420Z,75.50
2023-04-16T00:15:59.874Z,67.70
2023-04-16T00:16:32.359Z,66.40
2023-04-16T00:17:04.883Z,67.10
2023-04-16T00:17:37.274Z,70.10
2023-04-16T00:18:09.719Z,76.40
2023-04-16T00:18:42.164Z,75.50
2023-04-16T00:19:14.615Z,69.30
2023-04-16T00:19:47.159Z,72.80
2023-04-16T00:20:19.672Z,68.70
2023-04-16T00:20:52.209Z,69.10
2023-04-16T00:21:24.675Z,77.60
2023-04-16T00:21:57.198Z,80.20
2023-04-16T00:22:29.693Z,81.90
2023-04-16T00:23:02.261Z,77.30
2023-04-16T00:23:34.622Z,68.10
2023-04-16T00:24:07.068Z,67.20
2023-04-16T00:24:39.527Z,61.30
2023-04-16T00:25:12.001Z,61.50
2023-04-16T00:25:44.481Z,64.10
2023-04-16T00:26:16.958Z,63.10
2023-04-16T00:26:49.446Z,61.70
2023-04-16T00:27:21.887Z,69.50
2023-04-16T00:27:54.403Z,78.60
2023-04-16T00:28:26.911Z,67.30
2023-04-16T00:28:59.368Z,60.50
2023-04-16T00:29:31.825Z,60.90
2023-04-16T00:30:04.451Z,66.40
2023-04-16T00:30:36.887Z,75.50
2023-04-16T00:31:09.361Z,71.00
2023-04-16T00:31:41.827Z,68.50
2023-04-16T00:32:14.278Z,66.60
2023-04-16T00:32:46.850Z,65.90
2023-04-16T00:33:19.262Z,72.50
2023-04-16T00:33:51.723Z,73.90
2023-04-16T00:34:24.224Z,72.40
2023-04-16T00:34:56.743Z,75.00
2023-04-16T00:35:29.223Z,70.20
2023-04-16T00:36:01.766Z,68.70
2023-04-16T00:36:34.245Z,74.80
2023-04-16T00:37:06.769Z,64.60
2023-04-16T00:37:39.276Z,66.00
2023-04-16T00:38:11.783Z,72.90
2023-04-16T00:38:44.304Z,74.20
2023-04-16T00:39:16.738Z,70.00
2023-04-16T00:39:49.187Z,66.00
2023-04-16T00:40:21.647Z,70.50
2023-04-16T00:40:54.111Z,75.90
2023-04-16T00:41:26.548Z,75.80
2023-04-16T00:41:59.045Z,72.80
2023-04-16T00:42:31.530Z,77.10
2023-04-16T00:43:04.035Z,75.40
2023-04-16T00:43:36.525Z,82.80
2023-04-16T00:44:09.029Z,86.00
2023-04-16T00:44:41.551Z,73.00
2023-04-16T00:45:14.013Z,66.90
2023-04-16T00:45:46.553Z,71.10
2023-04-16T00:46:19.141Z,75.80
2023-04-16T00:46:51.590Z,75.00
2023-04-16T00:47:24.105Z,81.80
2023-04-16T00:47:57.150Z,75.50
2023-04-16T00:48:28.997Z,73.80
2023-04-16T00:49:01.495Z,69.10
2023-04-16T00:49:34.008Z,70.00
2023-04-16T00:50:06.497Z,76.20
2023-04-16T00:50:39.040Z,69.60
2023-04-16T00:51:11.620Z,68.00
2023-04-16T00:51:44.119Z,68.20
2023-04-16T00:52:16.634Z,75.30
2023-04-16T00:52:49.148Z,73.70
2023-04-16T00:53:21.666Z,78.20
2023-04-16T00:53:54.136Z,82.70
2023-04-16T00:54:26.622Z,69.90
2023-04-16T00:54:59.084Z,69.80
2023-04-16T00:55:31.542Z,69.40
2023-04-16T00:56:04.051Z,70.50
2023-04-16T00:56:36.500Z,72.50
2023-04-16T00:57:08.956Z,70.40
2023-04-16T00:57:41.485Z,77.10
2023-04-16T00:58:13.936Z,80.40
2023-04-16T00:58:46.431Z,84.90
2023-04-16T00:59:18.966Z,82.60
2023-04-16T00:59:51.447Z,76.20
2023-04-16T01:00:23.942Z,79.30
2023-04-16T01:00:56.435Z,77.40
2023-04-16T01:01:28.934Z,80.90
2023-04-16T01:02:01.437Z,87.30
2023-04-16T01:02:33.954Z,80.40
2023-04-16T01:03:06.428Z,77.10
2023-04-16T01:03:38.894Z,68.60
2023-04-16T01:04:11.296Z,65.00
2023-04-16T01:04:43.721Z,70.90
2023-04-16T01:05:16.179Z,81.70
2023-04-16T01:05:48.660Z,86.10
2023-04-16T01:06:21.143Z,78.30
2023-04-16T01:06:53.641Z,78.60
2023-04-16T01:07:26.115Z,89.30
2023-04-16T01:07:58.671Z,95.80
2023-04-16T01:08:31.142Z,85.50
2023-04-16T01:09:03.627Z,74.70
2023-04-16T01:09:36.074Z,75.30
2023-04-16T01:10:08.536Z,71.70
2023-04-16T01:10:40.985Z,75.60
2023-04-16T01:11:13.443Z,76.90
2023-04-16T01:11:45.953Z,73.40
2023-04-16T01:12:18.441Z,76.20
2023-04-16T01:12:50.925Z,73.20
2023-04-16T01:13:23.406Z,73.90
2023-04-16T01:13:55.896Z,74.20
2023-04-16T01:14:28.374Z,74.00
2023-04-16T01:15:00.837Z,68.30
2023-04-16T01:15:33.282Z,76.20
2023-04-16T01:16:05.785Z,83.00
2023-04-16T01:16:38.214Z,79.80
2023-04-16T01:17:10.704Z,72.60
2023-04-16T01:17:43.230Z,79.00
2023-04-16T01:18:15.720Z,79.70
2023-04-16T01:18:48.218Z,78.70
2023-04-16T01:19:20.703Z,86.70
2023-04-16T01:19:53.163Z,89.10
2023-04-16T01:20:25.633Z,73.00
2023-04-16T01:20:58.153Z,80.40
2023-04-16T01:21:30.649Z,85.60
2023-04-16T01:22:03.169Z,80.60
2023-04-16T01:22:35.656Z,81.60
2023-04-16T01:23:08.129Z,70.30
2023-04-16T01:23:40.647Z,75.40
2023-04-16T01:24:13.152Z,83.60
2023-04-16T01:24:45.709Z,73.90
2023-04-16T01:25:18.217Z,65.80
2023-04-16T01:25:50.691Z,77.30
2023-04-16T01:26:23.174Z,77.30
2023-04-16T01:26:55.691Z,74.00
2023-04-16T01:27:28.196Z,71.70
2023-04-16T01:28:00.694Z,70.70
2023-04-16T01:28:33.189Z,74.90
2023-04-16T01:29:05.698Z,88.50
2023-04-16T01:29:38.211Z,80.20
2023-04-16T01:30:10.690Z,72.90
2023-04-16T01:30:43.149Z,71.40
2023-04-16T01:31:15.695Z,71.40
2023-04-16T01:31:48.208Z,71.80
2023-04-16T01:32:20.628Z,71.40
2023-04-16T01:32:53.181Z,80.90
2023-04-16T01:33:25.604Z,79.10
2023-04-16T01:33:58.089Z,83.90
2023-04-16T01:34:30.612Z,82.30
2023-04-16T01:35:03.229Z,81.20
2023-04-16T01:35:35.555Z,80.20
2023-04-16T01:36:08.053Z,71.30
2023-04-16T01:36:40.553Z,70.30
2023-04-16T01:37:13.025Z,69.30
2023-04-16T01:37:45.539Z,77.60
2023-04-16T01:38:18.063Z,77.80
2023-04-16T01:38:50.523Z,72.30
2023-04-16T01:39:23.035Z,72.60
2023-04-16T01:39:55.538Z,74.90
2023-04-16T01:40:28.201Z,74.50
2023-04-16T01:41:00.715Z,73.40
2023-04-16T01:41:33.196Z,63.90
2023-04-16T01:42:05.719Z,66.80
2023-04-16T01:42:38.286Z,71.20
2023-04-16T01:43:10.862Z,72.70
2023-04-16T01:43:43.354Z,67.00
2023-04-16T01:44:15.828Z,75.50
2023-04-16T01:44:48.295Z,74.10
2023-04-16T01:45:20.773Z,66.80
2023-04-16T01:45:53.250Z,67.20
2023-04-16T01:46:25.836Z,65.60
2023-04-16T01:46:58.467Z,69.70
2023-04-16T01:47:30.866Z,71.00
2023-04-16T01:48:03.292Z,72.50
2023-04-16T01:48:35.806Z,74.30
2023-04-16T01:49:08.530Z,72.00
2023-04-16T01:49:40.786Z,80.60
2023-04-16T01:50:13.281Z,75.60
2023-04-16T01:50:45.761Z,72.30
2023-04-16T01:51:18.223Z,78.90
2023-04-16T01:51:50.702Z,69.00
2023-04-16T01:52:23.201Z,72.70
2023-04-16T01:52:55.681Z,78.30
2023-04-16T01:53:28.200Z,77.50
2023-04-16T01:54:00.664Z,75.40
2023-04-16T01:54:33.179Z,72.20
2023-04-16T01:55:05.638Z,74.10
2023-04-16T01:55:38.113Z,76.80
2023-04-16T01:56:10.665Z,74.30
2023-04-16T01:56:43.186Z,68.70
2023-04-16T01:57:15.632Z,65.90
2023-04-16T01:57:48.094Z,78.20
2023-04-16T01:58:21.337Z,82.20
2023-04-16T01:58:53.855Z,66.20
2023-04-16T01:59:26.396Z,64.10
2023-04-16T01:59:58.897Z,75.20
2023-04-16T02:00:31.483Z,77.30
2023-04-16T02:01:03.972Z,69.80
2023-04-16T02:01:36.372Z,68.50
2023-04-16T02:02:09.015Z,67.80
2023-04-16T02:02:41.484Z,84.50
2023-04-16T02:03:14.103Z,82.30
2023-04-16T02:03:46.536Z,71.90
2023-04-16T02:04:18.861Z,78.70
2023-04-16T02:04:51.387Z,81.50
2023-04-16T02:05:23.868Z,75.10
2023-04-16T02:05:56.357Z,65.80
2023-04-16T02:06:28.870Z,68.80
2023-04-16T02:07:01.330Z,65.50
2023-04-16T02:07:33.810Z,67.00
2023-04-16T02:08:06.254Z,70.90
2023-04-16T02:08:38.693Z,69.30
2023-04-16T02:09:11.436Z,75.90
2023-04-16T02:09:44.472Z,80.60
2023-04-16T02:10:16.979Z,64.10
2023-04-16T02:10:49.430Z,67.40
2023-04-16T02:11:21.886Z,71.90
2023-04-16T02:11:54.394Z,73.00
2023-04-16T02:12:26.874Z,78.60
2023-04-16T02:12:59.357Z,74.50
2023-04-16T02:13:31.877Z,72.30
2023-04-16T02:14:04.487Z,75.50
2023-04-16T02:14:36.961Z,75.70
2023-04-16T02:15:09.430Z,79.90
2023-04-16T02:15:41.890Z,78.40
2023-04-16T02:16:14.418Z,68.20
2023-04-16T02:16:46.971Z,73.70
2023-04-16T02:17:19.402Z,80.70
2023-04-16T02:17:51.884Z,72.50
2023-04-16T02:18:24.304Z,83.10
2023-04-16T02:18:56.753Z,76.20
2023-04-16T02:19:29.209Z,76.50
2023-04-16T02:20:01.658Z,77.50
2023-04-16T02:20:34.172Z,71.90
2023-04-16T02:21:06.656Z,70.40
2023-04-16T02:21:39.220Z,73.00
2023-04-16T02:22:12.635Z,80.00
2023-04-16T02:22:45.122Z,83.30
2023-04-16T02:23:17.654Z,74.80
2023-04-16T02:23:50.174Z,69.60
2023-04-16T02:24:22.675Z,75.50
2023-04-16T02:24:55.170Z,71.50
2023-04-16T02:25:27.758Z,66.30
2023-04-16T02:26:00.249Z,80.80
2023-04-16T02:26:32.786Z,76.40
2023-04-16T02:27:05.432Z,68.10
2023-04-16T02:27:37.899Z,72.90
2023-04-16T02:28:10.365Z,77.90
2023-04-16T02:28:42.852Z,85.00
2023-04-16T02:29:15.381Z,90.30
2023-04-16T02:29:47.965Z,81.00
2023-04-16T02:30:20.555Z,81.10
2023-04-16T02:30:53.002Z,74.00
2023-04-16T02:31:25.557Z,70.20
2023-04-16T02:31:58.069Z,82.40
2023-04-16T02:32:30.594Z,100.90
2023-04-16T02:33:03.448Z,98.40
2023-04-16T02:33:35.789Z,79.30
2023-04-16T02:34:08.292Z,84.00
2023-04-16T02:34:40.810Z,82.10
2023-04-16T02:35:13.267Z,72.90
2023-04-16T02:35:45.734Z,71.50
2023-04-16T02:36:18.307Z,68.40
2023-04-16T02:36:50.808Z,78.50
2023-04-16T02:37:23.276Z,79.70
2023-04-16T02:37:55.818Z,82.00
2023-04-16T02:38:28.317Z,82.70
2023-04-16T02:39:00.760Z,75.20
2023-04-16T02:39:33.261Z,83.50
2023-04-16T02:40:05.742Z,75.80
2023-04-16T02:40:38.211Z,71.90
2023-04-16T02:41:10.650Z,84.80
2023-04-16T02:41:43.113Z,89.20
2023-04-16T02:42:15.567Z,76.70
2023-04-16T02:42:48.015Z,69.80
2023-04-16T02:43:20.451Z,76.10
2023-04-16T02:43:52.982Z,83.30
2023-04-16T02:44:25.452Z,75.90
2023-04-16T02:44:57.931Z,70.70
2023-04-16T02:45:30.373Z,67.70
2023-04-16T02:46:02.926Z,69.30
2023-04-16T02:46:35.390Z,72.00
2023-04-16T02:47:07.887Z,75.20
2023-04-16T02:47:40.379Z,76.40
2023-04-16T02:48:12.819Z,73.50
2023-04-16T02:48:45.250Z,68.00
2023-04-16T02:49:17.688Z,68.80
2023-04-16T02:49:50.149Z,78.20
2023-04-16T02:50:22.669Z,71.40
2023-04-16T02:50:55.172Z,72.80
2023-04-16T02:51:27.667Z,75.70
2023-04-16T02:52:00.147Z,64.80
2023-04-16T02:52:32.603Z,60.60
2023-04-16T02:53:05.076Z,70.50
2023-04-16T02:53:37.612Z,74.80
2023-04-16T02:54:10.101Z,73.80
2023-04-16T02:54:42.622Z,76.20
2023-04-16T02:55:15.083Z,71.20
2023-04-16T02:55:47.560Z,82.00
2023-04-16T02:56:20.021Z,78.10
2023-04-16T02:56:52.598Z,78.70
2023-04-16T02:57:25.031Z,83.10
2023-04-16T02:57:57.493Z,71.80
2023-04-16T02:58:29.957Z,69.20
2023-04-16T02:59:02.402Z,73.20
2023-04-16T02:59:34.862Z,69.70
2023-04-16T03:00:07.320Z,65.50
2023-04-16T03:00:39.835Z,66.20
2023-04-16T03:01:12.393Z,71.90
2023-04-16T03:01:44.885Z,69.50
2023-04-16T03:02:17.399Z,70.20
2023-04-16T03:02:49.987Z,63.60
2023-04-16T03:03:22.331Z,58.80
2023-04-16T03:03:54.890Z,69.80
2023-04-16T03:04:27.401Z,73.80
2023-04-16T03:04:59.770Z,71.50
2023-04-16T03:05:32.264Z,72.50
2023-04-16T03:06:04.717Z,79.80
2023-04-16T03:06:37.187Z,78.60
2023-04-16T03:07:09.660Z,70.90
2023-04-16T03:07:42.109Z,69.50
2023-04-16T03:08:14.550Z,68.30
2023-04-16T03:08:47.123Z,71.30
2023-04-16T03:09:19.693Z,74.40
2023-04-16T03:09:52.163Z,73.50
2023-04-16T03:10:24.642Z,71.00
2023-04-16T03:10:57.095Z,71.60
2023-04-16T03:11:29.606Z,79.20
2023-04-16T03:12:02.102Z,77.20
2023-04-16T03:12:34.550Z,70.60
2023-04-16T03:13:07.001Z,65.40
2023-04-16T03:13:39.554Z,63.90
2023-04-16T03:14:12.023Z,68.70
2023-04-16T03:14:44.487Z,77.10
2023-04-16T03:15:16.958Z,69.90
2023-04-16T03:15:49.474Z,65.60
2023-04-16T03:16:22.016Z,66.80
2023-04-16T03:16:54.472Z,66.30
2023-04-16T03:17:27.036Z,66.90
2023-04-16T03:17:59.488Z,67.80
2023-04-16T03:18:31.911Z,71.60
2023-04-16T03:19:04.412Z,71.60
2023-04-16T03:19:36.889Z,66.60
2023-04-16T03:20:09.374Z,59.60
2023-04-16T03:20:41.861Z,59.20
2023-04-16T03:21:14.341Z,68.80
2023-04-16T03:21:46.840Z,73.60
2023-04-16T03:22:19.346Z,67.50
2023-04-16T03:22:51.830Z,68.60
2023-04-16T03:23:24.330Z,75.80
2023-04-16T03:23:56.771Z,73.30
2023-04-16T03:24:29.220Z,71.30
2023-04-16T03:25:01.700Z,71.00
2023-04-16T03:25:34.154Z,71.50
2023-04-16T03:26:06.586Z,73.60
2023-04-16T03:26:39.034Z,70.70
2023-04-16T03:27:11.498Z,66.30
2023-04-16T03:27:44.014Z,62.00
2023-04-16T03:28:16.497Z,65.00
2023-04-16T03:28:48.992Z,62.20
2023-04-16T03:29:21.443Z,60.80
2023-04-16T03:29:53.929Z,69.20
2023-04-16T03:30:26.385Z,67.40
2023-04-16T03:30:58.919Z,61.00
2023-04-16T03:31:31.447Z,62.40
2023-04-16T03:32:03.918Z,67.50
2023-04-16T03:32:36.423Z,64.70
2023-04-16T03:33:08.804Z,61.60
2023-04-16T03:33:41.296Z,66.70
2023-04-16T03:34:13.803Z,67.30
2023-04-16T03:34:46.309Z,73.30
2023-04-16T03:35:18.834Z,75.40
2023-04-16T03:35:51.352Z,67.00
2023-04-16T03:36:23.877Z,69.00
2023-04-16T03:36:56.356Z,58.80
2023-04-16T03:37:28.847Z,56.10
2023-04-16T03:38:01.318Z,59.20
2023-04-16T03:38:33.796Z,64.60
2023-04-16T03:39:06.241Z,66.00
2023-04-16T03:39:38.705Z,65.70
2023-04-16T03:40:11.245Z,66.20
2023-04-16T03:40:43.746Z,67.80
2023-04-16T03:41:16.280Z,65.80
2023-04-16T03:41:49.620Z,63.90
2023-04-16T03:42:22.054Z,66.20
2023-04-16T03:42:54.521Z,62.40
2023-04-16T03:43:26.964Z,68.40
2023-04-16T03:43:59.455Z,67.50
2023-04-16T03:44:31.997Z,67.30
2023-04-16T03:45:04.551Z,65.30
2023-04-16T03:45:37.059Z,60.20
2023-04-16T03:46:09.801Z,57.70
2023-04-16T03:46:42.287Z,59.60
2023-04-16T03:47:14.768Z,61.40
2023-04-16T03:47:47.238Z,60.50
2023-04-16T03:48:19.683Z,70.80
2023-04-16T03:48:52.207Z,71.60
2023-04-16T03:49:24.715Z,68.70
2023-04-16T03:49:57.163Z,69.90
2023-04-16T03:50:29.660Z,60.60
2023-04-16T03:51:02.236Z,58.00
2023-04-16T03:51:34.794Z,61.20
2023-04-16T03:52:07.262Z,62.30
2023-04-16T03:52:39.739Z,69.70
2023-04-16T03:53:12.282Z,72.90
2023-04-16T03:53:44.821Z,57.90
2023-04-16T03:54:17.363Z,58.20
2023-04-16T03:54:49.873Z,67.40
2023-04-16T03:55:22.351Z,67.50
2023-04-16T03:55:54.874Z,64.70
2023-04-16T03:56:27.402Z,59.90
2023-04-16T03:56:59.866Z,61.90
2023-04-16T03:57:32.381Z,66.20
2023-04-16T03:58:04.821Z,72.30
2023-04-16T03:58:37.245Z,69.40
2023-04-16T03:59:09.934Z,62.20
2023-04-16T03:59:43.152Z,64.10
2023-04-16T04:00:15.657Z,66.80
2023-04-16T04:00:48.236Z,61.60
2023-04-16T04:01:20.706Z,65.10
2023-04-16T04:01:53.278Z,69.40
2023-04-16T04:02:25.798Z,65.00
2023-04-16T04:02:59.308Z,61.40
2023-04-16T04:03:31.704Z,63.60
2023-04-16T04:04:04.363Z,67.50
2023-04-16T04:04:36.648Z,67.80
2023-04-16T04:05:09.006Z,59.20
2023-04-16T04:05:41.516Z,63.70
2023-04-16T04:06:13.928Z,70.20
2023-04-16T04:06:46.413Z,62.50
2023-04-16T04:07:18.899Z,60.80
2023-04-16T04:07:51.401Z,66.70
2023-04-16T04:08:23.916Z,65.60
2023-04-16T04:08:56.379Z,67.20
2023-04-16T04:09:28.804Z,58.90
2023-04-16T04:10:01.255Z,53.40
2023-04-16T04:10:33.714Z,59.10
2023-04-16T04:11:06.176Z,65.20
2023-04-16T04:11:38.672Z,62.30
2023-04-16T04:12:11.218Z,55.80
2023-04-16T04:12:43.745Z,59.60
2023-04-16T04:13:16.243Z,59.90
2023-04-16T04:13:48.676Z,54.50
2023-04-16T04:14:21.174Z,54.80
2023-04-16T04:14:53.609Z,61.00
2023-04-16T04:15:26.097Z,63.20
2023-04-16T04:15:58.561Z,51.30
2023-04-16T04:16:31.097Z,53.70
2023-04-16T04:17:03.480Z,62.10
2023-04-16T04:17:35.971Z,64.70
2023-04-16T04:18:08.485Z,62.20
2023-04-16T04:18:41.721Z,61.00
2023-04-16T04:19:13.524Z,62.80
2023-04-16T04:19:58.065Z,57.80
2023-04-16T04:20:18.431Z,59.90
2023-04-16T04:20:50.897Z,65.00
2023-04-16T04:21:23.345Z,62.50
2023-04-16T04:21:55.794Z,58.90
2023-04-16T04:22:28.288Z,62.50
2023-04-16T04:23:00.751Z,58.70
2023-04-16T04:23:33.219Z,55.70
2023-04-16T04:24:05.712Z,58.50
2023-04-16T04:24:38.208Z,57.20
2023-04-16T04:25:10.662Z,58.90
2023-04-16T04:25:43.150Z,55.30
2023-04-16T04:26:15.777Z,52.30
2023-04-16T04:26:48.193Z,55.90
2023-04-16T04:27:20.692Z,54.30
2023-04-16T04:27:53.176Z,60.70
2023-04-16T04:28:25.616Z,62.30
2023-04-16T04:28:58.063Z,52.20
2023-04-16T04:29:30.552Z,61.70
2023-04-16T04:30:03.045Z,64.90
2023-04-16T04:30:35.687Z,59.80
2023-04-16T04:31:08.239Z,55.00
2023-04-16T04:31:40.804Z,56.40
2023-04-16T04:32:13.244Z,64.80
2023-04-16T04:32:45.753Z,61.00
2023-04-16T04:33:18.180Z,59.60
2023-04-16T04:33:50.641Z,60.40
2023-04-16T04:34:23.147Z,58.90
2023-04-16T04:34:55.676Z,62.00
2023-04-16T04:35:28.130Z,60.20
2023-04-16T04:36:00.634Z,61.00
2023-04-16T04:36:33.124Z,59.10
2023-04-16T04:37:05.651Z,58.20
2023-04-16T04:37:38.163Z,54.80
2023-04-16T04:38:10.620Z,54.50
2023-04-16T04:38:43.114Z,55.80
2023-04-16T04:39:16.042Z,57.10
2023-04-16T04:39:48.448Z,64.60
2023-04-16T04:40:20.909Z,60.50
2023-04-16T04:40:53.379Z,57.00
2023-04-16T04:41:25.854Z,52.30
2023-04-16T04:41:58.293Z,52.50
2023-04-16T04:42:30.803Z,61.00
2023-04-16T04:43:03.231Z,57.30
2023-04-16T04:43:35.667Z,61.60
2023-04-16T04:44:08.112Z,58.10
2023-04-16T04:44:40.612Z,51.80
2023-04-16T04:45:13.092Z,60.10
2023-04-16T04:45:45.686Z,65.50
2023-04-16T04:46:18.196Z,64.30
2023-04-16T04:46:50.645Z,57.00
2023-04-16T04:47:23.130Z,57.50
2023-04-16T04:47:55.678Z,67.70
2023-04-16T04:48:28.131Z,66.20
2023-04-16T04:49:00.594Z,60.20
2023-04-16T04:49:33.053Z,63.10
2023-04-16T04:50:05.493Z,58.80
2023-04-16T04:50:37.971Z,55.80
2023-04-16T04:51:10.458Z,54.20
2023-04-16T04:51:42.970Z,60.70
2023-04-16T04:52:15.532Z,58.20
2023-04-16T04:52:47.982Z,55.50
2023-04-16T04:53:20.526Z,56.80
2023-04-16T04:53:52.954Z,58.20
2023-04-16T04:54:25.437Z,63.30
2023-04-16T04:54:57.950Z,59.90
2023-04-16T04:55:30.493Z,58.20
2023-04-16T04:56:12.472Z,56.90
2023-04-16T04:56:35.520Z,55.70
2023-04-16T04:57:07.951Z,54.40
2023-04-16T04:57:40.390Z,56.50
2023-04-16T04:58:12.872Z,63.70
2023-04-16T04:58:45.350Z,58.80
2023-04-16T04:59:17.846Z,56.50
2023-04-16T04:59:50.307Z,65.50
2023-04-16T05:00:22.762Z,61.00
2023-04-16T05:00:55.340Z,52.70
2023-04-16T05:01:27.807Z,59.60
2023-04-16T05:02:00.335Z,58.60
2023-04-16T05:02:32.878Z,51.30
2023-04-16T05:03:05.327Z,50.00
2023-04-16T05:03:37.883Z,52.10
2023-04-16T05:04:10.383Z,59.20
2023-04-16T05:04:42.778Z,57.00
2023-04-16T05:05:15.278Z,58.40
2023-04-16T05:05:47.732Z,58.70
2023-04-16T05:06:20.201Z,53.50
2023-04-16T05:06:52.647Z,54.80
2023-04-16T05:07:25.079Z,61.70
2023-04-16T05:07:57.565Z,56.80
2023-04-16T05:08:30.060Z,54.20
2023-04-16T05:09:02.567Z,57.20
2023-04-16T05:09:35.127Z,56.20
2023-04-16T05:10:07.610Z,57.80
2023-04-16T05:10:40.217Z,58.30
2023-04-16T05:11:12.770Z,53.80
2023-04-16T05:11:45.228Z,55.90
2023-04-16T05:12:17.741Z,61.00
2023-04-16T05:12:50.254Z,57.80
2023-04-16T05:13:22.753Z,57.10
2023-04-16T05:13:55.214Z,58.30
2023-04-16T05:14:27.714Z,55.70
2023-04-16T05:15:00.206Z,54.30
2023-04-16T05:15:32.628Z,52.80
2023-04-16T05:16:05.103Z,49.80
2023-04-16T05:16:37.770Z,54.50
2023-04-16T05:17:10.081Z,58.00
2023-04-16T05:17:42.589Z,55.40
2023-04-16T05:18:15.015Z,56.80
2023-04-16T05:18:47.542Z,55.10
2023-04-16T05:19:19.999Z,59.10
2023-04-16T05:19:52.540Z,59.80
2023-04-16T05:20:25.041Z,54.10
2023-04-16T05:20:57.612Z,55.30
2023-04-16T05:21:30.063Z,57.10
2023-04-16T05:22:02.570Z,52.80
2023-04-16T05:22:35.053Z,52.80
2023-04-16T05:23:07.492Z,57.80
2023-04-16T05:23:39.993Z,60.10
2023-04-16T05:24:13.685Z,54.60
2023-04-16T05:24:44.947Z,51.70
2023-04-16T05:25:17.481Z,55.70
2023-04-16T05:25:49.920Z,60.00
2023-04-16T05:26:22.374Z,57.90
2023-04-16T05:26:54.877Z,55.20
2023-04-16T05:27:27.354Z,55.20
2023-04-16T05:27:59.866Z,53.80
2023-04-16T05:28:32.378Z,58.40
2023-04-16T05:29:04.851Z,61.40
2023-04-16T05:29:37.330Z,54.60
2023-04-16T05:30:09.806Z,54.10
2023-04-16T05:30:42.380Z,57.50
2023-04-16T05:31:14.916Z,52.60
2023-04-16T05:31:47.424Z,52.10
2023-04-16T05:32:19.961Z,54.70
2023-04-16T05:32:52.400Z,54.80
2023-04-16T05:33:24.860Z,47.20
2023-04-16T05:33:57.319Z,52.00
2023-04-16T05:34:29.782Z,56.90
2023-04-16T05:35:02.253Z,58.10
2023-04-16T05:35:34.724Z,59.20
2023-04-16T05:36:07.235Z,54.90
2023-04-16T05:36:39.770Z,58.50
2023-04-16T05:37:12.308Z,55.10
2023-04-16T05:37:44.837Z,59.80
2023-04-16T05:38:17.354Z,62.40
2023-04-16T05:38:49.845Z,57.50
2023-04-16T05:39:22.322Z,54.70
2023-04-16T05:39:54.779Z,49.70
2023-04-16T05:40:27.218Z,52.90
2023-04-16T05:40:59.694Z,60.60
2023-04-16T05:41:32.191Z,55.40
2023-04-16T05:42:04.670Z,52.80
2023-04-16T05:42:37.169Z,55.80
2023-04-16T05:43:09.668Z,50.50
2023-04-16T05:43:42.170Z,50.50
2023-04-16T05:44:14.640Z,53.70
2023-04-16T05:44:47.126Z,54.50
2023-04-16T05:45:19.558Z,53.10
2023-04-16T05:45:52.048Z,57.40
2023-04-16T05:46:24.552Z,62.60
2023-04-16T05:46:57.050Z,58.10
2023-04-16T05:47:29.571Z,55.90
2023-04-16T05:48:02.149Z,53.20
2023-04-16T05:48:34.592Z,52.70
2023-04-16T05:49:07.300Z,60.30
2023-04-16T05:49:39.592Z,58.80
2023-04-16T05:50:12.102Z,59.50
2023-04-16T05:50:44.559Z,56.40
2023-04-16T05:51:17.009Z,56.40
2023-04-16T05:51:50.760Z,59.60
2023-04-16T05:52:22.008Z,53.90
2023-04-16T05:52:54.452Z,57.70
2023-04-16T05:53:26.945Z,59.70
2023-04-16T05:53:59.466Z,61.10
2023-04-16T05:54:31.952Z,65.80
2023-04-16T05:55:04.411Z,58.70
2023-04-16T05:55:36.953Z,53.70
2023-04-16T05:56:09.464Z,62.10
2023-04-16T05:56:41.913Z,67.00
2023-04-16T05:57:14.417Z,68.60
2023-04-16T05:57:46.943Z,60.30
2023-04-16T05:58:19.437Z,56.80
2023-04-16T05:58:51.923Z,58.30
2023-04-16T05:59:24.533Z,63.40
2023-04-16T05:59:57.006Z,61.80
2023-04-16T06:00:29.494Z,55.80
2023-04-16T06:01:01.986Z,53.90
2023-04-16T06:01:34.570Z,54.00
2023-04-16T06:02:06.958Z,62.60
2023-04-16T06:02:39.620Z,66.40
2023-04-16T06:03:12.074Z,68.40
2023-04-16T06:03:44.658Z,62.90
2023-04-16T06:04:17.075Z,55.50
2023-04-16T06:04:49.455Z,55.50
2023-04-16T06:05:22.012Z,61.10
2023-04-16T06:05:54.495Z,58.30
2023-04-16T06:06:26.901Z,58.10
2023-04-16T06:06:59.349Z,61.70
2023-04-16T06:07:31.809Z,57.40
2023-04-16T06:08:04.282Z,59.00
2023-04-16T06:08:36.761Z,59.40
2023-04-16T06:09:09.388Z,59.10
2023-04-16T06:09:41.668Z,63.40
2023-04-16T06:10:14.227Z,67.90
2023-04-16T06:10:46.706Z,60.30
2023-04-16T06:11:19.188Z,56.30
2023-04-16T06:11:51.706Z,64.20
2023-04-16T06:12:24.238Z,66.50
2023-04-16T06:12:56.701Z,60.10
2023-04-16T06:13:29.248Z,61.80
2023-04-16T06:14:01.774Z,62.10
2023-04-16T06:16:18.158Z,61.40
2023-04-16T06:16:50.608Z,57.70
2023-04-16T06:17:23.083Z,62.90
2023-04-16T06:17:55.540Z,57.50
2023-04-16T06:18:27.975Z,55.00
2023-04-16T06:19:00.462Z,54.10
2023-04-16T06:19:32.982Z,56.10
2023-04-16T06:20:05.475Z,62.80
2023-04-16T06:20:37.925Z,64.10
2023-04-16T06:21:10.397Z,65.10
2023-04-16T06:21:42.848Z,64.10
2023-04-16T06:22:15.329Z,64.00
2023-04-16T06:22:47.790Z,66.60
2023-04-16T06:23:20.245Z,65.10
2023-04-16T06:23:52.677Z,60.10
2023-04-16T06:24:25.183Z,56.90
2023-04-16T06:24:57.656Z,52.80
2023-04-16T06:25:30.103Z,54.10
2023-04-16T06:26:02.581Z,65.20
2023-04-16T06:26:35.047Z,71.70
2023-04-16T06:27:07.523Z,65.10
2023-04-16T06:27:39.952Z,57.60
2023-04-16T06:28:12.453Z,58.10
2023-04-16T06:28:44.925Z,61.20
2023-04-16T06:29:17.438Z,58.30
2023-04-16T06:29:49.923Z,51.70
2023-04-16T06:30:22.453Z,56.40
2023-04-16T06:30:54.917Z,60.70
2023-04-16T06:31:27.433Z,56.40
2023-04-16T06:31:59.934Z,56.70
2023-04-16T06:32:32.425Z,64.00
2023-04-16T06:33:04.971Z,62.10
2023-04-16T06:33:37.445Z,55.80
2023-04-16T06:34:10.043Z,55.60
2023-04-16T06:34:42.542Z,52.90
2023-04-16T06:35:15.048Z,61.60
2023-04-16T06:35:47.562Z,61.70
2023-04-16T06:36:19.986Z,56.00
2023-04-16T06:36:52.521Z,57.30
2023-04-16T06:37:24.979Z,54.00
2023-04-16T06:37:57.435Z,51.40
2023-04-16T06:38:29.885Z,57.60
2023-04-16T06:39:02.404Z,57.60
2023-04-16T06:39:34.845Z,56.00
2023-04-16T06:40:07.307Z,54.60
2023-04-16T06:40:39.754Z,61.70
2023-04-16T06:41:12.246Z,59.00
2023-04-16T06:41:44.729Z,55.20
2023-04-16T06:42:17.219Z,53.20
2023-04-16T06:42:57.262Z,53.10
2023-04-16T06:43:29.695Z,59.40
2023-04-16T06:44:02.205Z,58.10
2023-04-16T06:44:34.734Z,54.90
2023-04-16T06:45:07.340Z,51.60
2023-04-16T06:45:39.809Z,58.00
2023-04-16T06:46:12.360Z,65.50
2023-04-16T06:46:44.913Z,65.00
2023-04-16T06:47:17.436Z,57.90
2023-04-16T06:47:50.000Z,54.50
2023-04-16T06:48:22.509Z,56.90
2023-04-16T06:48:55.139Z,56.00
2023-04-16T06:49:27.724Z,57.30
2023-04-16T06:50:00.191Z,51.60
2023-04-16T06:50:32.702Z,51.20
2023-04-16T06:51:05.268Z,53.70
2023-04-16T06:51:37.773Z,56.50
2023-04-16T06:52:10.294Z,53.30
2023-04-16T06:52:42.789Z,48.60
2023-04-16T06:53:15.254Z,52.80
2023-04-16T06:53:47.750Z,52.50
2023-04-16T06:54:20.227Z,50.80
2023-04-16T06:54:52.727Z,52.60
2023-04-16T06:55:25.263Z,54.80
2023-04-16T06:55:57.768Z,57.60
2023-04-16T06:56:30.220Z,57.30
2023-04-16T06:57:02.796Z,59.40
2023-04-16T06:57:37.316Z,55.40
2023-04-16T06:58:07.741Z,52.10
2023-04-16T06:58:40.270Z,50.30
2023-04-16T06:59:12.774Z,50.70
2023-04-16T06:59:45.318Z,58.40
2023-04-16T07:00:17.825Z,58.40